Time;durP1;ratioP1;P1;durP2;ratioP2;P2;SDS_P1;SDS_P2;PMS_P1;PMS_P2;Temp;Humidity;BMP_temperature;BMP_pressure;BME280_temperature;BME280_humidity;BME280_pressure;Samples;Min_cycle;Max_cycle;Signal;HPM_P1;HPM_P2
2021/09/15 00:02:20;;;;;;;7.95;3.42;;;;;;;13.80;75.66;145646.22;1889939;76;22104;-65
2021/09/15 00:04:55;;;;;;;9.20;3.58;;;;;;;13.76;76.01;145636.14;1870571;76;22600;-64
2021/09/15 00:07:30;;;;;;;7.53;3.52;;;;;;;13.71;75.85;145623.58;1889970;76;22140;-62
2021/09/15 00:10:07;;;;;;;10.05;4.10;;;;;;;13.68;75.59;145617.28;1870574;76;22160;-65
2021/09/15 00:12:42;;;;;;;7.70;3.65;;;;;;;13.64;75.99;145608.50;1870675;76;22129;-62
2021/09/15 00:15:17;;;;;;;7.15;3.40;;;;;;;13.65;76.21;145611.00;1870689;76;22163;-61
2021/09/15 00:17:52;;;;;;;7.08;4.22;;;;;;;13.66;75.83;145613.55;1889940;76;22578;-64
2021/09/15 00:20:27;;;;;;;8.23;3.65;;;;;;;13.64;75.99;145608.50;1870626;76;22520;-63
2021/09/15 00:23:02;;;;;;;8.08;3.70;;;;;;;13.62;76.01;145602.22;1889960;76;22547;-62
2021/09/15 00:25:37;;;;;;;8.00;3.98;;;;;;;13.58;75.92;145592.14;1870744;76;22140;-64
2021/09/15 00:28:12;;;;;;;7.40;3.92;;;;;;;13.54;75.88;145582.11;1870669;76;22276;-63
2021/09/15 00:30:46;;;;;;;8.23;3.80;;;;;;;13.53;76.36;145580.81;1870697;76;22598;-61
2021/09/15 00:33:41;;;;;;;9.15;4.20;;;;;;;13.51;76.47;145574.53;1889914;76;22181;-64
2021/09/15 00:36:17;;;;;;;8.03;3.83;;;;;;;13.49;76.45;145570.80;1870570;76;22172;-62
2021/09/15 00:39:11;;;;;;;7.15;3.90;;;;;;;13.48;76.22;145568.25;1870645;76;22133;-60
2021/09/15 00:41:46;;;;;;;9.20;4.05;;;;;;;13.44;76.07;145559.47;1870694;76;22133;-64
2021/09/15 00:44:40;;;;;;;8.23;4.35;;;;;;;13.42;75.93;145553.19;1873671;75;22225;-66
2021/09/15 00:47:24;;;;;;;6.50;3.67;;;;;;;13.38;75.69;145543.11;1870691;76;22165;-64
2021/09/15 00:49:59;;;;;;;7.15;3.60;;;;;;;13.32;75.49;145529.28;1870580;76;22140;-62
2021/09/15 00:52:35;;;;;;;7.35;3.98;;;;;;;13.29;75.34;145521.75;1854628;76;27899;-63
2021/09/15 00:55:10;;;;;;;6.05;3.30;;;;;;;13.34;74.74;145533.08;1870702;76;22536;-62
2021/09/15 00:57:45;;;;;;;7.62;3.90;;;;;;;13.34;74.06;145533.08;1854775;76;28003;-65
2021/09/15 01:00:20;;;;;;;8.63;3.42;;;;;;;13.38;73.76;145543.11;1889945;76;22140;-62
2021/09/15 01:03:01;;;;;;;6.62;3.62;;;;;;;13.33;73.36;145531.83;1869819;76;22189;-67
2021/09/15 01:05:36;;;;;;;9.55;3.45;;;;;;;13.29;72.42;145520.52;1870651;76;22567;-64
2021/09/15 01:08:32;;;;;;;7.72;2.70;;;;;;;13.22;71.60;145505.36;1870642;76;22144;-63
2021/09/15 01:11:10;;;;;;;5.15;2.65;;;;;;;13.18;70.43;145494.08;1870526;76;22167;-63
2021/09/15 01:13:51;;;;;;;8.05;2.92;;;;;;;13.14;70.14;145485.25;1869842;76;22562;-63
2021/09/15 01:16:26;;;;;;;6.12;2.80;;;;;;;13.11;69.98;145477.72;1854792;76;27929;-65
2021/09/15 01:19:26;;;;;;;8.30;2.67;;;;;;;13.13;69.45;145481.52;1889913;76;22148;-64
2021/09/15 01:22:39;;;;;;;5.47;2.98;;;;;;;13.06;68.92;145465.16;1890090;76;22124;-66
2021/09/15 01:25:16;;;;;;;5.33;2.33;;;;;;;13.02;68.58;145455.08;1890140;76;22173;-63
2021/09/15 01:27:51;;;;;;;7.50;2.55;;;;;;;13.01;68.37;145452.59;1870748;76;22137;-61
2021/09/15 01:30:47;;;;;;;6.33;2.52;;;;;;;12.98;68.51;145445.06;1873824;76;28341;-65
2021/09/15 01:33:41;;;;;;;7.85;2.50;;;;;;;13.02;67.96;145455.08;1890304;76;22136;-63
2021/09/15 01:36:34;;;;;;;6.78;2.55;;;;;;;12.99;67.40;145447.56;1890198;76;22524;-63
2021/09/15 01:39:09;;;;;;;4.80;2.52;;;;;;;12.98;67.46;145445.06;1870885;76;22551;-63
2021/09/15 01:41:44;;;;;;;7.05;2.42;;;;;;;12.96;67.75;145440.03;1870726;76;22571;-63
2021/09/15 01:44:22;;;;;;;9.68;2.87;;;;;;;12.95;67.59;145438.78;1870420;76;22308;-61
2021/09/15 01:47:01;;;;;;;6.03;2.58;;;;;;;12.95;67.69;145437.48;1890078;76;22127;-64
2021/09/15 01:49:37;;;;;;;6.45;2.70;;;;;;;12.95;67.61;145437.48;1870876;76;20212;-63
2021/09/15 01:52:30;;;;;;;9.70;2.75;;;;;;;12.94;67.39;145434.98;1881287;75;22212;-63
2021/09/15 01:55:07;;;;;;;5.83;2.60;;;;;;;12.94;66.75;145434.98;1870683;76;22145;-60
2021/09/15 01:57:41;;;;;;;8.38;2.27;;;;;;;12.95;66.46;145437.48;1870669;76;22137;-65
2021/09/15 02:00:16;;;;;;;6.45;2.45;;;;;;;12.97;65.59;145442.52;1870675;76;22141;-61
2021/09/15 02:02:52;;;;;;;8.05;2.83;;;;;;;12.97;65.93;145442.52;1870649;76;22129;-61
2021/09/15 02:05:49;;;;;;;6.08;2.40;;;;;;;12.96;65.85;145440.03;1889945;76;22132;-64
2021/09/15 02:08:24;;;;;;;12.03;2.77;;;;;;;12.95;66.22;145437.48;1870612;76;22156;-63
2021/09/15 02:11:24;;;;;;;6.30;2.72;;;;;;;12.94;66.13;145434.98;1870641;76;22196;-62
2021/09/15 02:14:18;;;;;;;7.90;2.47;;;;;;;12.93;65.64;145432.50;1889895;76;22135;-63
2021/09/15 02:16:53;;;;;;;6.67;2.55;;;;;;;12.92;65.66;145429.95;1870666;76;22132;-62
2021/09/15 02:19:33;;;;;;;6.87;2.50;;;;;;;12.90;66.10;145424.92;1889912;76;22163;-63
2021/09/15 02:22:06;;;;;;;3.92;2.17;;;;;;;12.88;65.90;145419.94;1870619;76;22580;-63
2021/09/15 02:24:42;;;;;;;5.53;2.30;;;;;;;12.87;65.69;145418.64;1870605;76;22161;-63
2021/09/15 02:27:17;;;;;;;4.70;2.33;;;;;;;12.89;65.59;145422.42;1889958;76;22566;-64
2021/09/15 02:29:57;;;;;;;7.30;1.95;;;;;;;12.88;65.01;145419.94;1869803;76;22582;-64
2021/09/15 02:32:32;;;;;;;8.45;2.20;;;;;;;12.88;64.46;145419.94;1889931;76;22550;-61
2021/09/15 02:35:08;;;;;;;4.95;2.27;;;;;;;12.89;63.92;145422.42;1889954;76;22159;-69
2021/09/15 02:37:44;;;;;;;7.08;2.52;;;;;;;12.90;63.79;145424.92;1890025;76;22164;-63
2021/09/15 02:40:19;;;;;;;8.28;2.22;;;;;;;12.89;64.05;145423.67;1870681;76;22117;-66
2021/09/15 02:42:54;;;;;;;4.92;2.50;;;;;;;12.88;63.88;145419.94;1870679;76;22185;-65
2021/09/15 02:45:29;;;;;;;6.47;2.50;;;;;;;12.86;64.17;145414.89;1870660;76;22238;-66
2021/09/15 02:48:05;;;;;;;4.62;2.22;;;;;;;12.83;64.29;145407.37;1890091;76;22159;-63
2021/09/15 02:50:40;;;;;;;5.78;2.37;;;;;;;12.80;63.95;145402.33;1870600;76;22141;-62
2021/09/15 02:53:41;;;;;;;6.33;2.20;;;;;;;12.81;63.99;145404.83;1870582;76;22148;-66
2021/09/15 02:56:16;;;;;;;6.12;2.50;;;;;;;12.85;63.76;145412.34;1870736;76;22202;-61
2021/09/15 02:58:51;;;;;;;4.60;2.25;;;;;;;12.83;63.79;145408.61;1870666;76;22171;-63
2021/09/15 03:01:26;;;;;;;5.30;2.27;;;;;;;12.80;63.82;145401.08;1870602;76;22559;-65
2021/09/15 03:04:00;;;;;;;6.37;2.75;;;;;;;12.79;64.07;145399.78;1889993;76;22143;-63
2021/09/15 03:06:35;;;;;;;4.72;2.40;;;;;;;12.78;63.96;145396.05;1870650;76;22145;-65
2021/09/15 03:09:10;;;;;;;7.12;2.17;;;;;;;12.76;63.79;145392.27;1870653;76;22149;-65
2021/09/15 03:11:45;;;;;;;4.90;2.20;;;;;;;12.73;64.29;145384.73;1870647;76;22109;-63
2021/09/15 03:14:19;;;;;;;7.65;3.58;;;;;;;12.70;65.21;145375.95;1870605;76;22176;-66
2021/09/15 03:16:54;;;;;;;8.80;4.00;;;;;;;12.65;67.37;145363.39;1870678;76;22595;-64
2021/09/15 03:19:30;;;;;;;9.15;3.58;;;;;;;12.53;68.78;145334.48;1889932;76;22292;-63
2021/09/15 03:22:06;;;;;;;8.83;3.72;;;;;;;12.43;69.35;145309.36;1854630;76;27912;-63
2021/09/15 03:24:42;;;;;;;7.80;3.37;;;;;;;12.43;69.92;145309.36;1889878;76;22166;-63
2021/09/15 03:27:23;;;;;;;8.75;4.33;;;;;;;12.40;69.99;145301.83;1869822;76;22153;-64
2021/09/15 03:29:58;;;;;;;11.10;5.17;;;;;;;12.40;70.61;145301.83;1870672;76;22242;-66
2021/09/15 03:32:35;;;;;;;9.13;4.90;;;;;;;12.40;71.53;145303.08;1870611;76;22133;-61
2021/09/15 03:35:10;;;;;;;8.38;5.62;;;;;;;12.38;72.68;145299.30;1870672;76;22539;-63
2021/09/15 03:38:05;;;;;;;10.88;5.42;;;;;;;12.33;72.87;145286.73;1870759;76;22577;-64
2021/09/15 03:40:39;;;;;;;8.90;4.58;;;;;;;12.32;73.39;145283.00;1870722;76;22145;-62
2021/09/15 03:43:14;;;;;;;9.48;5.35;;;;;;;12.31;73.29;145280.45;1862725;76;22208;-60
2021/09/15 03:45:49;;;;;;;19.75;7.85;;;;;;;12.33;75.22;145285.48;1870386;76;22227;-63
2021/09/15 03:48:23;;;;;;;16.45;6.90;;;;;;;12.31;76.55;145281.75;1870651;76;22165;-65
2021/09/15 03:50:58;;;;;;;12.82;6.78;;;;;;;12.31;77.46;145280.45;1870762;76;22574;-60
2021/09/15 03:53:33;;;;;;;15.28;7.30;;;;;;;12.33;78.58;145286.73;1889934;76;22134;-64
2021/09/15 03:56:08;;;;;;;14.80;6.95;;;;;;;12.36;79.43;145293.02;1870689;76;22145;-61
2021/09/15 03:58:43;;;;;;;13.78;6.53;;;;;;;12.40;79.96;145301.83;1870719;76;22140;-62
2021/09/15 04:01:17;;;;;;;10.53;6.33;;;;;;;12.40;80.15;145303.08;1870637;76;22176;-64
2021/09/15 04:03:53;;;;;;;15.90;6.72;;;;;;;12.40;79.84;145301.83;1854641;76;27908;-64
2021/09/15 04:06:28;;;;;;;10.95;5.30;;;;;;;12.46;79.38;145316.89;1870690;76;22156;-65
2021/09/15 04:09:03;;;;;;;14.30;5.65;;;;;;;12.47;77.88;145319.44;1889921;76;22159;-63
2021/09/15 04:11:38;;;;;;;10.30;4.62;;;;;;;12.48;76.52;145323.17;1866411;76;22215;-63
2021/09/15 04:14:13;;;;;;;7.42;4.30;;;;;;;12.52;75.23;145332.00;1850753;77;22187;-64
2021/09/15 04:17:07;;;;;;;8.40;4.10;;;;;;;12.58;74.02;145348.28;1860386;76;22176;-62
2021/09/15 04:19:42;;;;;;;10.08;4.92;;;;;;;12.64;72.99;145362.09;1859794;76;22194;-64
2021/09/15 04:22:20;;;;;;;9.25;5.30;;;;;;;12.69;72.59;145373.42;1839379;76;28464;-62
2021/09/15 04:33:22;;;;;;;11.18;5.30;;;;;;;12.94;70.37;145436.23;1862625;76;22223;-66
2021/09/15 04:35:58;;;;;;;10.13;5.33;;;;;;;13.14;69.65;145485.25;1889984;76;22192;-58
2021/09/15 04:38:34;;;;;;;8.93;5.12;;;;;;;13.83;68.57;145655.00;1889791;76;22192;-64
2021/09/15 04:41:12;;;;;;;8.73;4.08;;;;;;;14.85;66.30;145904.14;1889863;76;22253;-63
2021/09/15 04:43:47;;;;;;;8.18;4.72;;;;;;;15.87;63.41;146155.97;1852754;76;22212;-65
2021/09/15 04:46:45;;;;;;;8.93;3.47;;;;;;;17.02;60.83;146438.23;1924025;73;22539;-67
2021/09/15 04:49:39;;;;;;;6.40;3.35;;;;;;;18.01;58.77;146682.91;1859756;76;22140;-67
2021/09/15 04:52:41;;;;;;;9.18;3.60;;;;;;;19.05;55.52;146939.13;1850090;76;22184;-65
2021/09/15 04:55:17;;;;;;;7.20;3.30;;;;;;;19.92;52.99;147155.12;1852868;76;27910;-65
2021/09/15 04:57:53;;;;;;;7.05;3.27;;;;;;;20.76;49.01;147361.09;1852332;76;22200;-68
2021/09/15 05:00:28;;;;;;;7.17;3.30;;;;;;;21.38;46.49;147514.09;1852815;76;22165;-67
2021/09/15 05:03:04;;;;;;;8.78;3.42;;;;;;;21.99;47.03;147664.66;1852879;76;22179;-66
2021/09/15 05:05:59;;;;;;;8.13;3.60;;;;;;;22.49;46.07;147788.66;1857570;75;22651;-64
2021/09/15 05:08:33;;;;;;;9.38;3.37;;;;;;;22.85;43.34;147877.28;1856059;76;22159;-67
2021/09/15 05:11:09;;;;;;;8.88;3.80;;;;;;;23.15;41.16;147953.28;1853585;76;22191;-64
2021/09/15 05:13:45;;;;;;;6.78;3.85;;;;;;;23.37;40.17;148006.44;1862944;76;22272;-63
2021/09/15 05:16:20;;;;;;;12.25;3.95;;;;;;;23.52;39.61;148043.16;1837429;76;28086;-62
2021/09/15 05:18:57;;;;;;;10.05;3.27;;;;;;;23.72;38.99;148093.86;1840132;76;28049;-65
2021/09/15 05:21:32;;;;;;;9.18;3.50;;;;;;;24.22;37.61;148216.70;1870598;76;22161;-62
2021/09/15 05:24:27;;;;;;;7.17;3.67;;;;;;;24.44;36.70;148271.20;1859470;76;22120;-64
2021/09/15 05:27:22;;;;;;;9.25;3.77;;;;;;;25.01;36.69;148411.91;1863643;76;22253;-64
2021/09/15 05:29:56;;;;;;;9.28;3.90;;;;;;;25.64;35.77;148569.16;1870582;76;22137;-66
2021/09/15 05:32:38;;;;;;;9.13;3.77;;;;;;;26.19;34.38;148706.20;1869729;76;22180;-65
2021/09/15 05:35:16;;;;;;;13.30;3.60;;;;;;;26.59;34.71;148803.97;1870053;76;22227;-63
2021/09/15 05:37:51;;;;;;;8.23;3.25;;;;;;;27.22;33.59;148960.06;1870603;76;22145;-64
2021/09/15 05:40:26;;;;;;;9.18;4.03;;;;;;;27.72;33.39;149084.50;1889882;76;22599;-64
2021/09/15 05:43:27;;;;;;;9.70;3.75;;;;;;;28.18;31.86;149198.84;1859273;76;22602;-62
2021/09/15 05:46:03;;;;;;;8.18;3.72;;;;;;;28.20;31.70;149203.92;1868073;76;22691;-63
2021/09/15 05:48:38;;;;;;;11.25;4.17;;;;;;;28.58;31.27;149297.98;1841965;76;38710;-61
2021/09/15 05:51:17;;;;;;;9.33;4.35;;;;;;;28.97;30.56;149395.80;1870429;76;22087;-64
2021/09/15 05:53:54;;;;;;;8.55;3.98;;;;;;;29.33;30.31;149483.53;1854360;76;27927;-63
2021/09/15 05:56:48;;;;;;;10.05;4.40;;;;;;;30.17;29.06;149692.09;1864476;75;33424;-63
2021/09/15 05:59:23;;;;;;;9.65;3.25;;;;;;;30.61;28.38;149801.55;1889614;76;22090;-64
2021/09/15 06:01:58;;;;;;;10.45;3.72;;;;;;;30.77;27.95;149842.23;1852220;76;22105;-63
2021/09/15 06:04:36;;;;;;;8.55;3.47;;;;;;;30.79;28.29;149847.33;1841943;76;22138;-67
2021/09/15 06:07:17;;;;;;;7.87;3.90;;;;;;;31.11;27.91;149926.23;1869642;76;22256;-65
2021/09/15 06:09:52;;;;;;;11.25;3.80;;;;;;;31.64;27.63;150057.37;1946824;73;22016;-67
2021/09/15 06:12:51;;;;;;;11.40;4.67;;;;;;;31.64;27.43;150057.37;1889857;76;22141;-68
2021/09/15 06:15:29;;;;;;;8.20;3.92;;;;;;;32.01;26.91;150150.36;1870310;76;22244;-65
2021/09/15 06:18:08;;;;;;;7.58;3.25;;;;;;;32.48;26.44;150267.52;1869964;76;22236;-64
2021/09/15 06:20:50;;;;;;;9.10;3.45;;;;;;;32.43;26.45;150254.73;1889871;76;22129;-62
2021/09/15 06:23:25;;;;;;;13.98;3.70;;;;;;;32.85;26.14;150359.23;1889888;76;22216;-69
2021/09/15 06:26:00;;;;;;;6.70;3.30;;;;;;;33.58;25.33;150540.20;1870647;76;22075;-64
2021/09/15 06:28:56;;;;;;;7.23;3.67;;;;;;;34.18;24.59;150690.64;1854659;76;28366;-64
2021/09/15 06:31:31;;;;;;;7.75;3.20;;;;;;;34.66;23.89;150810.52;1854915;76;28346;-62
2021/09/15 06:34:05;;;;;;;7.00;3.05;;;;;;;33.91;24.92;150623.03;1870716;76;22180;-62
2021/09/15 06:36:42;;;;;;;10.05;3.10;;;;;;;34.04;24.10;150656.14;1870741;76;22164;-63
2021/09/15 06:39:20;;;;;;;8.53;3.00;;;;;;;33.91;23.87;150624.28;1869336;76;22766;-57
2021/09/15 06:41:57;;;;;;;7.03;2.75;;;;;;;33.69;24.32;150568.27;1889670;76;22085;-61
2021/09/15 06:44:34;;;;;;;7.45;3.52;;;;;;;33.91;23.95;150623.03;1946840;73;22064;-66
2021/09/15 06:47:29;;;;;;;11.43;3.17;;;;;;;34.28;23.68;150714.86;1870566;76;20101;-64
2021/09/15 06:50:23;;;;;;;7.87;3.00;;;;;;;34.15;23.45;150683.00;1869982;76;22154;-65
2021/09/15 06:52:58;;;;;;;6.70;3.10;;;;;;;34.09;23.93;150667.67;1869626;76;23414;-64
2021/09/15 06:55:33;;;;;;;6.17;2.60;;;;;;;34.43;23.47;150753.09;1889850;76;22638;-64
2021/09/15 06:58:07;;;;;;;7.17;2.95;;;;;;;34.95;22.80;150881.91;1870655;76;22140;-66
2021/09/15 07:00:42;;;;;;;7.22;3.08;;;;;;;35.12;22.78;150924.06;1889953;76;22468;-62
2021/09/15 07:03:23;;;;;;;7.10;3.12;;;;;;;35.47;22.19;151012.06;1869786;76;22521;-64
2021/09/15 07:05:57;;;;;;;6.42;2.37;;;;;;;34.91;22.55;150871.69;1870648;76;22604;-63
2021/09/15 07:08:32;;;;;;;10.18;2.90;;;;;;;35.38;22.21;150990.36;1870653;76;22105;-62
2021/09/15 07:11:08;;;;;;;8.33;2.70;;;;;;;36.26;20.87;151209.91;1854763;76;27894;-62
2021/09/15 07:13:43;;;;;;;4.87;2.40;;;;;;;36.26;19.80;151209.91;1870621;76;22046;-64
2021/09/15 07:16:18;;;;;;;6.75;2.42;;;;;;;35.88;19.81;151114.16;1889905;76;22090;-64
2021/09/15 07:18:52;;;;;;;4.90;2.40;;;;;;;35.91;20.35;151121.81;1870606;76;22043;-64
2021/09/15 07:21:27;;;;;;;9.05;2.42;;;;;;;36.32;19.74;151222.66;1870666;76;22145;-63
2021/09/15 07:24:03;;;;;;;6.30;2.27;;;;;;;36.39;19.73;151241.80;1889961;76;22053;-65
2021/09/15 07:26:38;;;;;;;6.95;2.47;;;;;;;36.68;19.75;151313.30;1870708;76;22051;-63
2021/09/15 07:29:39;;;;;;;7.53;1.95;;;;;;;36.64;19.08;151304.39;1869739;76;22090;-65
2021/09/15 07:32:33;;;;;;;9.00;2.12;;;;;;;37.07;18.56;151410.34;1870632;76;22054;-64
2021/09/15 07:35:14;;;;;;;4.92;2.02;;;;;;;37.21;17.57;151444.84;1869772;76;22083;-63
2021/09/15 07:37:48;;;;;;;6.20;2.10;;;;;;;37.50;17.77;151518.87;1870666;76;22149;-63
2021/09/15 07:40:23;;;;;;;5.40;2.00;;;;;;;37.18;17.53;151437.19;1870588;76;22469;-63
2021/09/15 07:42:59;;;;;;;5.10;1.90;;;;;;;36.44;17.77;151254.56;1870651;76;22078;-62
2021/09/15 07:45:34;;;;;;;4.67;2.05;;;;;;;35.69;18.65;151065.66;1889926;76;20265;-64
2021/09/15 07:48:09;;;;;;;4.85;1.90;;;;;;;35.80;19.24;151093.72;1870603;76;22051;-64
2021/09/15 07:50:44;;;;;;;4.72;1.95;;;;;;;35.68;18.89;151063.14;1889971;76;22465;-64
2021/09/15 07:53:20;;;;;;;5.12;1.90;;;;;;;35.65;19.60;151058.02;1870665;76;22050;-62
2021/09/15 07:55:55;;;;;;;5.72;1.75;;;;;;;35.37;18.82;150986.56;1870673;76;22668;-63
2021/09/15 07:58:29;;;;;;;4.95;1.92;;;;;;;34.62;19.85;150800.30;1870713;76;22619;-64
2021/09/15 08:01:07;;;;;;;3.98;1.80;;;;;;;34.30;19.72;150719.97;1890008;76;22697;-64
2021/09/15 08:03:43;;;;;;;6.37;1.47;;;;;;;34.57;19.92;150787.50;1889951;76;22105;-65
2021/09/15 08:06:22;;;;;;;3.52;1.55;;;;;;;35.01;19.53;150898.50;1870688;76;22078;-64
2021/09/15 08:09:03;;;;;;;5.78;2.00;;;;;;;35.09;19.44;150916.42;1869797;76;22690;-65
2021/09/15 08:11:38;;;;;;;6.75;2.25;;;;;;;34.90;19.63;150869.16;1870680;76;22067;-63
2021/09/15 08:14:13;;;;;;;4.55;1.75;;;;;;;35.31;19.63;150972.48;1870706;76;22152;-64
2021/09/15 08:16:54;;;;;;;4.95;1.70;;;;;;;35.64;18.76;151055.44;1869787;76;22058;-63
2021/09/15 08:19:35;;;;;;;4.28;1.80;;;;;;;34.71;19.17;150823.27;1869780;76;22067;-65
2021/09/15 08:22:09;;;;;;;4.53;1.95;;;;;;;33.85;20.07;150609.02;1870678;76;22082;-64
2021/09/15 08:24:44;;;;;;;7.45;1.65;;;;;;;33.17;21.14;150439.50;1889948;76;22171;-61
2021/09/15 08:27:19;;;;;;;3.40;1.10;;;;;;;33.17;20.75;150439.50;1870659;76;22481;-62
2021/09/15 08:29:54;;;;;;;4.12;1.60;;;;;;;32.91;21.20;150374.50;1870616;76;22493;-64
2021/09/15 08:32:29;;;;;;;5.33;1.40;;;;;;;32.42;21.21;150252.20;1854749;76;27883;-64
2021/09/15 08:35:06;;;;;;;3.30;1.30;;;;;;;32.15;21.66;150184.70;1870771;76;22112;-62
2021/09/15 08:37:41;;;;;;;6.12;1.85;;;;;;;32.25;21.42;150208.91;1890191;76;22046;-64
2021/09/15 08:40:36;;;;;;;5.15;2.02;;;;;;;31.13;22.79;149931.33;1889869;76;22086;-63
2021/09/15 08:43:10;;;;;;;8.40;1.85;;;;;;;30.02;23.69;149656.52;1890082;76;22199;-65
2021/09/15 08:45:52;;;;;;;6.67;1.95;;;;;;;29.49;24.13;149524.23;1889899;76;22078;-65
2021/09/15 08:48:30;;;;;;;3.90;1.90;;;;;;;29.05;25.18;149413.59;1870648;76;22149;-64
2021/09/15 08:51:07;;;;;;;5.37;2.47;;;;;;;28.58;25.75;149296.72;1889952;76;22235;-64
2021/09/15 08:54:02;;;;;;;4.42;2.08;;;;;;;27.75;26.61;149092.11;1869005;75;22206;-64
2021/09/15 08:56:37;;;;;;;6.93;2.37;;;;;;;26.88;28.53;148876.27;1854884;76;27915;-64
2021/09/15 08:59:13;;;;;;;5.22;2.22;;;;;;;26.20;29.05;148708.77;1870539;76;22233;-64
2021/09/15 09:02:12;;;;;;;6.47;2.20;;;;;;;25.54;29.89;148545.11;1870745;76;22244;-64
2021/09/15 09:04:58;;;;;;;5.33;2.42;;;;;;;24.85;30.80;148372.63;1870666;76;22149;-63
2021/09/15 09:07:55;;;;;;;9.53;2.90;;;;;;;24.42;31.73;148267.38;1870416;76;22113;-64
2021/09/15 09:10:53;;;;;;;7.85;2.62;;;;;;;23.82;33.05;148117.94;1870663;76;22113;-64
2021/09/15 09:13:28;;;;;;;9.63;3.20;;;;;;;23.14;34.41;147950.72;1870513;76;22176;-61
2021/09/15 09:16:04;;;;;;;10.40;3.12;;;;;;;22.52;35.01;147796.28;1854595;76;27951;-65
2021/09/15 09:19:00;;;;;;;6.40;2.27;;;;;;;22.03;35.92;147676.03;1870675;76;22576;-65
2021/09/15 09:21:53;;;;;;;9.15;3.33;;;;;;;21.56;36.92;147558.41;1870658;76;22567;-65
2021/09/15 09:24:38;;;;;;;7.97;2.40;;;;;;;21.23;37.35;147478.67;1869739;76;22163;-64
2021/09/15 09:27:14;;;;;;;7.37;2.65;;;;;;;20.92;37.90;147400.31;1870496;76;22185;-63
2021/09/15 09:30:23;;;;;;;7.08;3.00;;;;;;;20.69;38.53;147343.44;1889973;76;22140;-62
2021/09/15 09:32:59;;;;;;;5.47;2.58;;;;;;;20.45;39.62;147283.97;1889856;76;22583;-63
2021/09/15 09:35:45;;;;;;;6.05;2.50;;;;;;;20.20;39.56;147222.06;1873923;76;38215;-64
2021/09/15 09:38:33;;;;;;;6.62;2.17;;;;;;;19.99;39.49;147171.53;1870715;76;22132;-64
2021/09/15 09:41:13;;;;;;;5.17;2.65;;;;;;;19.81;40.17;147126.06;1870768;76;22141;-64
2021/09/15 09:43:52;;;;;;;7.37;2.90;;;;;;;19.77;40.94;147115.94;1870685;76;22117;-66
2021/09/15 09:46:33;;;;;;;6.75;2.40;;;;;;;19.72;40.48;147105.87;1889975;76;22559;-63
2021/09/15 09:49:29;;;;;;;5.20;2.12;;;;;;;19.60;41.00;147074.25;1870550;76;22168;-65
2021/09/15 09:52:04;;;;;;;6.83;2.20;;;;;;;19.55;39.43;147062.88;1889952;76;22140;-64
2021/09/15 09:54:40;;;;;;;5.00;2.35;;;;;;;19.50;39.88;147050.25;1889919;76;22152;-64
2021/09/15 09:57:15;;;;;;;5.58;2.22;;;;;;;19.52;40.17;147055.31;1870699;76;22133;-64
2021/09/15 10:00:12;;;;;;;3.45;1.92;;;;;;;19.59;40.63;147071.69;1889960;76;22189;-63
2021/09/15 10:03:08;;;;;;;4.28;1.90;;;;;;;19.60;38.42;147074.25;1854819;76;27914;-62
2021/09/15 10:05:44;;;;;;;3.87;1.80;;;;;;;19.50;39.23;147051.50;1889980;76;22115;-64
2021/09/15 10:08:21;;;;;;;5.20;1.95;;;;;;;19.43;39.81;147032.56;1870665;76;22137;-62
2021/09/15 10:11:23;;;;;;;5.12;1.50;;;;;;;19.45;39.58;147037.63;1869734;76;22550;-64
2021/09/15 10:14:00;;;;;;;4.35;1.80;;;;;;;19.47;38.98;147043.94;1873940;76;27935;-63
2021/09/15 10:16:59;;;;;;;7.15;1.82;;;;;;;19.58;38.45;147070.44;1889924;76;22147;-63
2021/09/15 10:19:55;;;;;;;4.15;1.75;;;;;;;19.64;38.73;147085.63;1890003;76;22574;-63
2021/09/15 10:22:34;;;;;;;5.20;1.72;;;;;;;19.71;38.64;147102.06;1889979;76;22144;-62
2021/09/15 10:25:10;;;;;;;5.50;2.20;;;;;;;19.70;38.72;147100.81;1870675;76;22101;-65
2021/09/15 10:28:07;;;;;;;3.62;1.70;;;;;;;19.73;38.47;147108.37;1854683;76;27867;-64
2021/09/15 10:30:54;;;;;;;7.35;1.90;;;;;;;19.82;37.92;147128.56;1870646;76;22149;-64
2021/09/15 10:33:43;;;;;;;5.67;1.82;;;;;;;19.97;37.33;147166.47;1870712;76;22519;-63
2021/09/15 10:36:37;;;;;;;5.67;1.87;;;;;;;20.03;38.18;147181.66;1889938;76;22128;-64
2021/09/15 10:39:26;;;;;;;5.50;1.70;;;;;;;20.07;38.02;147191.72;1889960;76;22140;-62
2021/09/15 10:42:04;;;;;;;4.67;1.90;;;;;;;20.06;37.88;147189.22;1870622;76;22124;-63
2021/09/15 10:44:44;;;;;;;5.67;2.27;;;;;;;20.09;38.38;147196.80;1870692;76;22125;-64
2021/09/15 10:47:19;;;;;;;3.77;2.05;;;;;;;20.21;38.86;147225.86;1870617;76;22139;-64
2021/09/15 10:49:55;;;;;;;6.42;1.70;;;;;;;20.37;37.88;147265.02;1870583;76;22215;-64
2021/09/15 10:52:37;;;;;;;3.30;1.70;;;;;;;20.43;36.65;147278.91;1889960;76;22112;-64
2021/09/15 10:55:19;;;;;;;5.95;1.60;;;;;;;20.48;36.08;147292.84;1870665;76;22113;-64
2021/09/15 10:58:11;;;;;;;5.45;1.70;;;;;;;20.62;35.98;147325.75;1869830;76;22197;-64
2021/09/15 11:00:59;;;;;;;6.28;1.80;;;;;;;20.75;36.12;147358.59;1870687;76;22105;-64
2021/09/15 11:03:54;;;;;;;5.42;1.90;;;;;;;20.85;36.18;147383.88;1875334;76;22163;-63
2021/09/15 11:06:48;;;;;;;5.35;1.95;;;;;;;20.99;35.80;147419.28;1870637;76;22141;-64
2021/09/15 11:09:28;;;;;;;7.92;1.70;;;;;;;20.97;34.49;147414.22;1870650;76;22528;-64
2021/09/15 11:12:03;;;;;;;4.10;1.65;;;;;;;20.96;34.83;147410.41;1870685;76;22607;-65
2021/09/15 11:14:57;;;;;;;6.28;1.85;;;;;;;21.05;34.89;147431.92;1889948;76;22198;-63
2021/09/15 11:17:36;;;;;;;4.47;1.82;;;;;;;21.01;34.68;147424.34;1870755;76;22157;-63
2021/09/15 11:20:11;;;;;;;5.53;2.10;;;;;;;21.01;34.88;147423.03;1870676;76;22584;-64
2021/09/15 11:23:08;;;;;;;4.92;2.17;;;;;;;21.08;35.14;147439.50;1890051;76;22112;-64
2021/09/15 11:25:50;;;;;;;10.65;2.75;;;;;;;21.17;34.60;147462.27;1889927;76;22108;-64
2021/09/15 11:28:52;;;;;;;6.03;1.98;;;;;;;21.19;33.94;147467.28;1869653;76;22176;-64
2021/09/15 11:31:46;;;;;;;3.92;1.67;;;;;;;21.25;33.82;147483.75;1870671;76;22559;-63
2021/09/15 11:34:43;;;;;;;4.15;1.55;;;;;;;21.37;34.05;147512.84;1889956;76;22111;-63
2021/09/15 11:37:23;;;;;;;4.17;1.70;;;;;;;21.48;34.49;147538.17;1870645;76;22113;-62
2021/09/15 11:40:03;;;;;;;3.62;1.80;;;;;;;21.43;34.49;147526.78;1889932;76;22116;-63
2021/09/15 11:42:38;;;;;;;4.20;1.87;;;;;;;21.39;34.44;147517.91;1870667;76;22576;-63
2021/09/15 11:45:20;;;;;;;7.65;2.30;;;;;;;21.45;35.25;147533.11;1854686;76;27991;-62
2021/09/15 11:47:56;;;;;;;7.92;1.95;;;;;;;21.51;35.04;147545.75;1870730;76;22173;-64
2021/09/15 11:50:36;;;;;;;4.50;1.77;;;;;;;21.60;34.58;147568.48;1870674;76;22133;-63
2021/09/15 11:53:14;;;;;;;4.75;2.00;;;;;;;21.73;33.93;147600.09;1890006;76;22143;-63
2021/09/15 11:58:28;;;;;;;8.48;2.33;;;;;;;21.96;34.37;147657.06;1870950;76;22519;-65
2021/09/15 12:01:03;;;;;;;3.70;1.87;;;;;;;22.02;33.55;147672.22;1870689;76;20209;-62
2021/09/15 12:03:40;;;;;;;7.10;2.12;;;;;;;22.09;34.49;147691.20;1889940;76;22574;-64
2021/09/15 12:06:16;;;;;;;4.97;1.77;;;;;;;22.39;34.54;147763.34;1889933;76;22155;-65
2021/09/15 12:08:53;;;;;;;5.97;1.80;;;;;;;22.71;33.57;147843.08;1854570;76;27916;-64
2021/09/15 12:11:37;;;;;;;6.67;2.05;;;;;;;23.00;32.48;147915.31;1854777;76;27881;-64
2021/09/15 12:17:08;;;;;;;4.12;1.60;;;;;;;23.02;30.77;147919.06;1870626;76;22124;-64
2021/09/15 12:19:48;;;;;;;2.95;1.40;;;;;;;22.97;29.99;147907.67;1870636;76;22164;-64
2021/09/15 12:22:28;;;;;;;3.58;1.30;;;;;;;22.92;29.14;147894.97;1889909;76;22143;-63
2021/09/15 12:25:12;;;;;;;5.25;1.60;;;;;;;22.88;28.90;147886.13;1870664;76;22145;-64
2021/09/15 12:27:50;;;;;;;3.05;1.40;;;;;;;22.86;29.63;147879.80;1870633;76;22156;-63
2021/09/15 12:30:28;;;;;;;3.77;1.52;;;;;;;22.78;29.52;147860.81;1870522;76;22168;-64
2021/09/15 12:33:02;;;;;;;2.87;1.20;;;;;;;22.81;28.92;147867.14;1870645;76;22202;-61
2021/09/15 12:35:38;;;;;;;7.25;1.72;;;;;;;22.80;28.96;147864.63;1870643;76;22188;-64
2021/09/15 12:38:14;;;;;;;4.30;1.72;;;;;;;22.87;29.78;147882.31;1870437;76;22176;-62
2021/09/15 12:40:56;;;;;;;3.02;1.25;;;;;;;22.81;29.82;147867.14;1870414;76;22157;-64